sensor_id;sensor_type;location;lat;lon;timestamp;P1;durP1;ratioP1;P2;durP2;ratioP2
42096;SDS011;27754;45.414;11.084;2023-03-01T00:01:01;11.48;;;6.60;;
42096;SDS011;27754;45.414;11.084;2023-03-01T00:03:33;12.95;;;7.00;;
42096;SDS011;27754;45.414;11.084;2023-03-01T00:06:00;10.20;;;6.50;;
42096;SDS011;27754;45.414;11.084;2023-03-01T00:08:28;10.90;;;6.72;;
42096;SDS011;27754;45.414;11.084;2023-03-01T00:11:39;12.05;;;7.18;;
42096;SDS011;27754;45.414;11.084;2023-03-01T00:13:52;12.15;;;7.45;;
42096;SDS011;27754;45.414;11.084;2023-03-01T00:16:25;10.77;;;6.57;;
42096;SDS011;27754;45.414;11.084;2023-03-01T00:18:57;12.05;;;7.35;;
42096;SDS011;27754;45.414;11.084;2023-03-01T00:21:24;11.35;;;7.05;;
42096;SDS011;27754;45.414;11.084;2023-03-01T00:23:52;11.63;;;7.10;;
42096;SDS011;27754;45.414;11.084;2023-03-01T00:26:20;12.10;;;7.68;;
42096;SDS011;27754;45.414;11.084;2023-03-01T00:28:48;11.82;;;6.60;;
42096;SDS011;27754;45.414;11.084;2023-03-01T00:31:17;13.20;;;6.88;;
42096;SDS011;27754;45.414;11.084;2023-03-01T00:33:52;12.50;;;7.07;;
42096;SDS011;27754;45.414;11.084;2023-03-01T00:36:24;13.55;;;7.60;;
42096;SDS011;27754;45.414;11.084;2023-03-01T00:38:52;13.32;;;7.07;;
42096;SDS011;27754;45.414;11.084;2023-03-01T00:41:20;15.43;;;8.20;;
42096;SDS011;27754;45.414;11.084;2023-03-01T00:43:49;15.60;;;8.55;;
42096;SDS011;27754;45.414;11.084;2023-03-01T00:46:17;18.48;;;9.55;;
42096;SDS011;27754;45.414;11.084;2023-03-01T00:48:48;16.00;;;8.77;;
42096;SDS011;27754;45.414;11.084;2023-03-01T00:51:16;13.35;;;7.45;;
42096;SDS011;27754;45.414;11.084;2023-03-01T00:53:52;14.32;;;8.10;;
42096;SDS011;27754;45.414;11.084;2023-03-01T00:56:20;12.90;;;7.30;;
42096;SDS011;27754;45.414;11.084;2023-03-01T00:58:47;13.20;;;7.57;;
42096;SDS011;27754;45.414;11.084;2023-03-01T01:01:16;12.88;;;7.22;;
42096;SDS011;27754;45.414;11.084;2023-03-01T01:06:24;12.73;;;8.25;;
42096;SDS011;27754;45.414;11.084;2023-03-01T01:08:54;15.27;;;8.07;;
42096;SDS011;27754;45.414;11.084;2023-03-01T01:11:22;14.90;;;7.82;;
42096;SDS011;27754;45.414;11.084;2023-03-01T01:13:51;14.98;;;7.82;;
42096;SDS011;27754;45.414;11.084;2023-03-01T01:16:20;17.05;;;8.40;;
42096;SDS011;27754;45.414;11.084;2023-03-01T01:18:49;19.85;;;9.25;;
42096;SDS011;27754;45.414;11.084;2023-03-01T01:21:17;15.27;;;7.70;;
42096;SDS011;27754;45.414;11.084;2023-03-01T01:23:46;13.50;;;7.97;;
42096;SDS011;27754;45.414;11.084;2023-03-01T01:26:15;15.00;;;7.38;;
42096;SDS011;27754;45.414;11.084;2023-03-01T01:28:43;15.00;;;8.30;;
42096;SDS011;27754;45.414;11.084;2023-03-01T01:31:11;11.65;;;7.18;;
42096;SDS011;27754;45.414;11.084;2023-03-01T01:33:38;13.00;;;7.28;;
42096;SDS011;27754;45.414;11.084;2023-03-01T01:36:05;18.35;;;7.70;;
42096;SDS011;27754;45.414;11.084;2023-03-01T01:38:33;12.30;;;7.93;;
42096;SDS011;27754;45.414;11.084;2023-03-01T01:41:01;13.30;;;7.25;;
42096;SDS011;27754;45.414;11.084;2023-03-01T01:43:30;11.10;;;7.55;;
42096;SDS011;27754;45.414;11.084;2023-03-01T01:48:40;13.93;;;8.30;;
42096;SDS011;27754;45.414;11.084;2023-03-01T01:51:11;11.95;;;7.72;;
42096;SDS011;27754;45.414;11.084;2023-03-01T01:53:41;12.25;;;8.05;;
42096;SDS011;27754;45.414;11.084;2023-03-01T01:56:11;12.73;;;7.32;;
42096;SDS011;27754;45.414;11.084;2023-03-01T01:58:40;14.18;;;8.10;;
42096;SDS011;27754;45.414;11.084;2023-03-01T02:01:08;14.88;;;8.90;;
42096;SDS011;27754;45.414;11.084;2023-03-01T02:03:36;14.10;;;8.07;;
42096;SDS011;27754;45.414;11.084;2023-03-01T02:06:12;15.77;;;8.02;;
42096;SDS011;27754;45.414;11.084;2023-03-01T02:08:46;15.13;;;8.85;;
42096;SDS011;27754;45.414;11.084;2023-03-01T02:11:15;20.38;;;10.43;;
42096;SDS011;27754;45.414;11.084;2023-03-01T02:13:47;19.55;;;10.38;;
42096;SDS011;27754;45.414;11.084;2023-03-01T02:16:15;20.38;;;11.15;;
42096;SDS011;27754;45.414;11.084;2023-03-01T02:18:43;20.27;;;10.88;;
42096;SDS011;27754;45.414;11.084;2023-03-01T02:21:15;18.40;;;10.43;;
42096;SDS011;27754;45.414;11.084;2023-03-01T02:23:53;17.75;;;9.50;;
42096;SDS011;27754;45.414;11.084;2023-03-01T02:26:25;16.90;;;9.73;;
42096;SDS011;27754;45.414;11.084;2023-03-01T02:28:57;15.95;;;9.05;;
42096;SDS011;27754;45.414;11.084;2023-03-01T02:31:25;16.92;;;10.30;;
42096;SDS011;27754;45.414;11.084;2023-03-01T02:34:15;17.08;;;9.50;;
42096;SDS011;27754;45.414;11.084;2023-03-01T02:36:45;14.98;;;8.63;;
42096;SDS011;27754;45.414;11.084;2023-03-01T02:39:20;15.77;;;8.93;;
42096;SDS011;27754;45.414;11.084;2023-03-01T02:41:52;17.42;;;9.25;;
42096;SDS011;27754;45.414;11.084;2023-03-01T02:44:20;17.58;;;9.75;;
42096;SDS011;27754;45.414;11.084;2023-03-01T02:46:50;19.00;;;9.07;;
42096;SDS011;27754;45.414;11.084;2023-03-01T02:49:29;19.15;;;9.32;;
42096;SDS011;27754;45.414;11.084;2023-03-01T02:57:35;15.80;;;9.60;;
42096;SDS011;27754;45.414;11.084;2023-03-01T03:00:06;19.63;;;10.70;;
42096;SDS011;27754;45.414;11.084;2023-03-01T03:02:54;19.52;;;10.02;;
42096;SDS011;27754;45.414;11.084;2023-03-01T03:05:25;17.95;;;9.70;;
42096;SDS011;27754;45.414;11.084;2023-03-01T03:07:56;17.88;;;9.90;;
42096;SDS011;27754;45.414;11.084;2023-03-01T03:10:26;21.30;;;10.13;;
42096;SDS011;27754;45.414;11.084;2023-03-01T03:12:57;17.55;;;9.68;;
42096;SDS011;27754;45.414;11.084;2023-03-01T03:15:26;18.02;;;10.02;;
42096;SDS011;27754;45.414;11.084;2023-03-01T03:17:55;17.83;;;9.70;;
42096;SDS011;27754;45.414;11.084;2023-03-01T03:20:24;18.83;;;10.25;;
42096;SDS011;27754;45.414;11.084;2023-03-01T03:22:54;17.10;;;10.32;;
42096;SDS011;27754;45.414;11.084;2023-03-01T03:25:22;20.08;;;9.98;;
42096;SDS011;27754;45.414;11.084;2023-03-01T03:27:49;17.13;;;9.85;;
42096;SDS011;27754;45.414;11.084;2023-03-01T03:30:30;17.17;;;9.00;;
42096;SDS011;27754;45.414;11.084;2023-03-01T03:32:58;16.83;;;9.10;;
42096;SDS011;27754;45.414;11.084;2023-03-01T03:35:29;19.10;;;10.48;;
42096;SDS011;27754;45.414;11.084;2023-03-01T03:37:59;18.10;;;9.82;;
42096;SDS011;27754;45.414;11.084;2023-03-01T03:40:38;19.30;;;10.02;;
42096;SDS011;27754;45.414;11.084;2023-03-01T03:43:07;23.77;;;10.95;;
42096;SDS011;27754;45.414;11.084;2023-03-01T03:45:36;16.65;;;9.90;;
42096;SDS011;27754;45.414;11.084;2023-03-01T03:48:04;20.08;;;11.13;;
42096;SDS011;27754;45.414;11.084;2023-03-01T03:50:33;21.95;;;10.05;;
42096;SDS011;27754;45.414;11.084;2023-03-01T03:53:01;20.42;;;11.57;;
42096;SDS011;27754;45.414;11.084;2023-03-01T03:55:29;23.23;;;11.70;;
42096;SDS011;27754;45.414;11.084;2023-03-01T03:57:57;18.77;;;11.43;;
42096;SDS011;27754;45.414;11.084;2023-03-01T04:00:28;21.58;;;12.00;;
42096;SDS011;27754;45.414;11.084;2023-03-01T04:02:55;23.52;;;11.93;;
42096;SDS011;27754;45.414;11.084;2023-03-01T04:05:22;24.88;;;11.35;;
42096;SDS011;27754;45.414;11.084;2023-03-01T04:07:50;18.40;;;11.27;;
42096;SDS011;27754;45.414;11.084;2023-03-01T04:10:28;25.42;;;12.50;;
42096;SDS011;27754;45.414;11.084;2023-03-01T04:12:56;20.33;;;11.50;;
42096;SDS011;27754;45.414;11.084;2023-03-01T04:15:24;21.67;;;11.73;;
42096;SDS011;27754;45.414;11.084;2023-03-01T04:17:52;19.05;;;11.32;;
42096;SDS011;27754;45.414;11.084;2023-03-01T04:20:22;22.70;;;11.85;;
42096;SDS011;27754;45.414;11.084;2023-03-01T04:23:04;22.30;;;12.25;;
42096;SDS011;27754;45.414;11.084;2023-03-01T04:25:40;21.27;;;11.97;;
42096;SDS011;27754;45.414;11.084;2023-03-01T04:28:08;22.38;;;12.63;;
42096;SDS011;27754;45.414;11.084;2023-03-01T04:30:36;22.67;;;11.30;;
42096;SDS011;27754;45.414;11.084;2023-03-01T04:33:04;18.23;;;10.40;;
42096;SDS011;27754;45.414;11.084;2023-03-01T04:35:34;23.27;;;11.85;;
42096;SDS011;27754;45.414;11.084;2023-03-01T04:38:03;21.73;;;11.77;;
42096;SDS011;27754;45.414;11.084;2023-03-01T04:40:31;18.52;;;11.00;;
42096;SDS011;27754;45.414;11.084;2023-03-01T04:42:59;27.00;;;14.43;;
42096;SDS011;27754;45.414;11.084;2023-03-01T04:45:26;26.13;;;11.10;;
42096;SDS011;27754;45.414;11.084;2023-03-01T04:47:54;19.73;;;10.50;;
42096;SDS011;27754;45.414;11.084;2023-03-01T04:50:21;21.13;;;11.38;;
42096;SDS011;27754;45.414;11.084;2023-03-01T04:52:49;19.27;;;10.82;;
42096;SDS011;27754;45.414;11.084;2023-03-01T04:55:17;17.70;;;11.75;;
42096;SDS011;27754;45.414;11.084;2023-03-01T04:57:44;21.15;;;11.10;;
42096;SDS011;27754;45.414;11.084;2023-03-01T05:00:12;21.58;;;11.73;;
42096;SDS011;27754;45.414;11.084;2023-03-01T05:02:50;20.88;;;11.57;;
42096;SDS011;27754;45.414;11.084;2023-03-01T05:07:59;20.65;;;11.15;;
42096;SDS011;27754;45.414;11.084;2023-03-01T05:10:28;20.55;;;11.57;;
42096;SDS011;27754;45.414;11.084;2023-03-01T05:12:57;18.63;;;11.07;;
42096;SDS011;27754;45.414;11.084;2023-03-01T05:15:25;20.65;;;11.32;;
42096;SDS011;27754;45.414;11.084;2023-03-01T05:17:54;24.35;;;12.07;;
42096;SDS011;27754;45.414;11.084;2023-03-01T05:20:28;20.67;;;11.93;;
42096;SDS011;27754;45.414;11.084;2023-03-01T05:22:57;20.80;;;10.77;;
42096;SDS011;27754;45.414;11.084;2023-03-01T05:25:26;24.80;;;12.45;;
42096;SDS011;27754;45.414;11.084;2023-03-01T05:27:53;22.63;;;12.77;;
42096;SDS011;27754;45.414;11.084;2023-03-01T05:30:20;25.25;;;11.77;;
42096;SDS011;27754;45.414;11.084;2023-03-01T05:32:48;20.50;;;11.57;;
42096;SDS011;27754;45.414;11.084;2023-03-01T05:35:22;22.55;;;12.20;;
42096;SDS011;27754;45.414;11.084;2023-03-01T05:37:49;23.23;;;12.63;;
42096;SDS011;27754;45.414;11.084;2023-03-01T05:40:21;25.02;;;12.95;;
42096;SDS011;27754;45.414;11.084;2023-03-01T05:42:54;25.08;;;12.48;;
42096;SDS011;27754;45.414;11.084;2023-03-01T05:45:23;28.90;;;14.00;;
42096;SDS011;27754;45.414;11.084;2023-03-01T05:47:51;26.05;;;13.27;;
42096;SDS011;27754;45.414;11.084;2023-03-01T05:50:20;24.42;;;12.32;;
42096;SDS011;27754;45.414;11.084;2023-03-01T05:52:56;21.38;;;12.77;;
42096;SDS011;27754;45.414;11.084;2023-03-01T05:55:25;29.55;;;13.60;;
42096;SDS011;27754;45.414;11.084;2023-03-01T05:57:54;26.80;;;13.82;;
42096;SDS011;27754;45.414;11.084;2023-03-01T06:00:21;29.80;;;13.63;;
42096;SDS011;27754;45.414;11.084;2023-03-01T06:02:48;33.58;;;12.10;;
42096;SDS011;27754;45.414;11.084;2023-03-01T06:05:16;24.33;;;14.18;;
42096;SDS011;27754;45.414;11.084;2023-03-01T06:07:43;26.13;;;13.88;;
42096;SDS011;27754;45.414;11.084;2023-03-01T06:10:11;28.25;;;14.18;;
42096;SDS011;27754;45.414;11.084;2023-03-01T06:12:39;32.15;;;15.88;;
42096;SDS011;27754;45.414;11.084;2023-03-01T06:15:08;28.95;;;14.00;;
42096;SDS011;27754;45.414;11.084;2023-03-01T06:17:37;25.45;;;13.63;;
42096;SDS011;27754;45.414;11.084;2023-03-01T06:20:06;25.80;;;12.75;;
42096;SDS011;27754;45.414;11.084;2023-03-01T06:22:41;23.83;;;12.85;;
42096;SDS011;27754;45.414;11.084;2023-03-01T06:25:10;35.00;;;14.23;;
42096;SDS011;27754;45.414;11.084;2023-03-01T06:27:38;26.33;;;13.68;;
42096;SDS011;27754;45.414;11.084;2023-03-01T06:30:08;24.98;;;14.40;;
42096;SDS011;27754;45.414;11.084;2023-03-01T06:32:37;28.50;;;14.98;;
42096;SDS011;27754;45.414;11.084;2023-03-01T06:35:11;26.02;;;15.25;;
42096;SDS011;27754;45.414;11.084;2023-03-01T06:37:40;28.20;;;13.63;;
42096;SDS011;27754;45.414;11.084;2023-03-01T06:40:07;28.50;;;15.27;;
42096;SDS011;27754;45.414;11.084;2023-03-01T06:42:35;27.05;;;15.32;;
42096;SDS011;27754;45.414;11.084;2023-03-01T06:45:03;42.33;;;16.05;;
42096;SDS011;27754;45.414;11.084;2023-03-01T06:47:32;26.38;;;14.68;;
42096;SDS011;27754;45.414;11.084;2023-03-01T06:50:00;27.83;;;15.70;;
42096;SDS011;27754;45.414;11.084;2023-03-01T06:52:28;27.77;;;14.65;;
42096;SDS011;27754;45.414;11.084;2023-03-01T06:54:55;35.58;;;15.40;;
42096;SDS011;27754;45.414;11.084;2023-03-01T06:57:22;32.03;;;15.52;;
42096;SDS011;27754;45.414;11.084;2023-03-01T06:59:49;33.75;;;16.38;;
42096;SDS011;27754;45.414;11.084;2023-03-01T07:02:16;69.15;;;38.65;;
42096;SDS011;27754;45.414;11.084;2023-03-01T07:04:43;35.60;;;20.70;;
42096;SDS011;27754;45.414;11.084;2023-03-01T07:07:10;36.15;;;19.83;;
42096;SDS011;27754;45.414;11.084;2023-03-01T07:09:38;36.03;;;19.58;;
42096;SDS011;27754;45.414;11.084;2023-03-01T07:12:05;31.35;;;17.45;;
42096;SDS011;27754;45.414;11.084;2023-03-01T07:14:33;31.65;;;15.55;;
42096;SDS011;27754;45.414;11.084;2023-03-01T07:17:00;37.03;;;16.52;;
42096;SDS011;27754;45.414;11.084;2023-03-01T07:19:27;29.60;;;16.02;;
42096;SDS011;27754;45.414;11.084;2023-03-01T07:21:54;27.42;;;16.10;;
42096;SDS011;27754;45.414;11.084;2023-03-01T07:24:22;27.85;;;15.52;;
42096;SDS011;27754;45.414;11.084;2023-03-01T07:26:49;32.88;;;17.85;;
42096;SDS011;27754;45.414;11.084;2023-03-01T07:29:17;30.15;;;16.25;;
42096;SDS011;27754;45.414;11.084;2023-03-01T07:31:45;30.65;;;16.92;;
42096;SDS011;27754;45.414;11.084;2023-03-01T07:34:12;29.70;;;17.05;;
42096;SDS011;27754;45.414;11.084;2023-03-01T07:36:39;29.70;;;16.88;;
42096;SDS011;27754;45.414;11.084;2023-03-01T07:39:09;38.72;;;20.10;;
42096;SDS011;27754;45.414;11.084;2023-03-01T07:41:37;33.03;;;19.23;;
42096;SDS011;27754;45.414;11.084;2023-03-01T07:44:04;36.42;;;18.80;;
42096;SDS011;27754;45.414;11.084;2023-03-01T07:46:31;29.67;;;17.95;;
42096;SDS011;27754;45.414;11.084;2023-03-01T07:48:58;30.73;;;17.77;;
42096;SDS011;27754;45.414;11.084;2023-03-01T07:51:25;35.80;;;19.90;;
42096;SDS011;27754;45.414;11.084;2023-03-01T07:53:53;32.85;;;18.98;;
42096;SDS011;27754;45.414;11.084;2023-03-01T07:56:20;36.00;;;21.88;;
42096;SDS011;27754;45.414;11.084;2023-03-01T07:58:48;36.58;;;19.52;;
42096;SDS011;27754;45.414;11.084;2023-03-01T08:01:18;36.83;;;20.38;;
42096;SDS011;27754;45.414;11.084;2023-03-01T08:03:46;34.72;;;21.05;;
42096;SDS011;27754;45.414;11.084;2023-03-01T08:06:14;35.35;;;21.02;;
42096;SDS011;27754;45.414;11.084;2023-03-01T08:08:41;41.78;;;21.52;;
42096;SDS011;27754;45.414;11.084;2023-03-01T08:11:10;34.28;;;20.55;;
42096;SDS011;27754;45.414;11.084;2023-03-01T08:13:38;37.60;;;19.63;;
42096;SDS011;27754;45.414;11.084;2023-03-01T08:16:06;35.53;;;19.02;;
42096;SDS011;27754;45.414;11.084;2023-03-01T08:18:38;35.28;;;19.73;;
42096;SDS011;27754;45.414;11.084;2023-03-01T08:21:09;36.97;;;18.63;;
42096;SDS011;27754;45.414;11.084;2023-03-01T08:23:38;39.35;;;20.83;;
42096;SDS011;27754;45.414;11.084;2023-03-01T08:26:10;33.33;;;18.48;;
42096;SDS011;27754;45.414;11.084;2023-03-01T08:28:39;32.03;;;17.85;;
42096;SDS011;27754;45.414;11.084;2023-03-01T08:31:41;31.80;;;18.90;;
42096;SDS011;27754;45.414;11.084;2023-03-01T08:34:06;32.70;;;18.23;;
42096;SDS011;27754;45.414;11.084;2023-03-01T08:36:37;35.17;;;20.20;;
42096;SDS011;27754;45.414;11.084;2023-03-01T08:39:07;39.30;;;19.77;;
42096;SDS011;27754;45.414;11.084;2023-03-01T08:41:35;32.85;;;20.13;;
42096;SDS011;27754;45.414;11.084;2023-03-01T08:44:02;30.05;;;18.23;;
42096;SDS011;27754;45.414;11.084;2023-03-01T08:46:40;27.83;;;17.08;;
42096;SDS011;27754;45.414;11.084;2023-03-01T08:49:11;30.13;;;18.60;;
42096;SDS011;27754;45.414;11.084;2023-03-01T08:51:40;32.33;;;18.83;;
42096;SDS011;27754;45.414;11.084;2023-03-01T08:54:12;33.70;;;19.92;;
42096;SDS011;27754;45.414;11.084;2023-03-01T08:56:42;27.13;;;17.92;;
42096;SDS011;27754;45.414;11.084;2023-03-01T08:59:10;32.38;;;17.40;;
42096;SDS011;27754;45.414;11.084;2023-03-01T09:01:39;32.63;;;17.88;;
42096;SDS011;27754;45.414;11.084;2023-03-01T09:04:06;26.52;;;16.75;;
42096;SDS011;27754;45.414;11.084;2023-03-01T09:06:33;32.20;;;18.73;;
42096;SDS011;27754;45.414;11.084;2023-03-01T09:09:01;27.88;;;18.45;;
42096;SDS011;27754;45.414;11.084;2023-03-01T09:11:29;30.77;;;19.23;;
42096;SDS011;27754;45.414;11.084;2023-03-01T09:13:56;31.20;;;18.08;;
42096;SDS011;27754;45.414;11.084;2023-03-01T09:16:23;32.40;;;16.85;;
42096;SDS011;27754;45.414;11.084;2023-03-01T09:18:51;33.53;;;18.10;;
42096;SDS011;27754;45.414;11.084;2023-03-01T09:21:20;29.45;;;16.90;;
42096;SDS011;27754;45.414;11.084;2023-03-01T09:24:04;35.60;;;17.52;;
42096;SDS011;27754;45.414;11.084;2023-03-01T09:26:32;30.52;;;17.42;;
42096;SDS011;27754;45.414;11.084;2023-03-01T09:28:59;27.10;;;17.50;;
42096;SDS011;27754;45.414;11.084;2023-03-01T09:31:26;29.70;;;18.02;;
42096;SDS011;27754;45.414;11.084;2023-03-01T09:33:53;34.17;;;19.13;;
42096;SDS011;27754;45.414;11.084;2023-03-01T09:36:22;31.17;;;19.27;;
42096;SDS011;27754;45.414;11.084;2023-03-01T09:38:51;38.78;;;19.55;;
42096;SDS011;27754;45.414;11.084;2023-03-01T09:44:38;31.05;;;19.45;;
42096;SDS011;27754;45.414;11.084;2023-03-01T09:47:19;35.63;;;18.90;;
42096;SDS011;27754;45.414;11.084;2023-03-01T09:52:43;34.53;;;17.30;;
42096;SDS011;27754;45.414;11.084;2023-03-01T09:55:36;29.45;;;16.02;;
42096;SDS011;27754;45.414;11.084;2023-03-01T10:01:03;21.70;;;13.38;;
42096;SDS011;27754;45.414;11.084;2023-03-01T10:06:42;21.73;;;13.32;;
42096;SDS011;27754;45.414;11.084;2023-03-01T10:09:18;22.45;;;13.65;;
42096;SDS011;27754;45.414;11.084;2023-03-01T10:11:47;24.45;;;13.70;;
42096;SDS011;27754;45.414;11.084;2023-03-01T10:14:24;19.70;;;14.00;;
42096;SDS011;27754;45.414;11.084;2023-03-01T10:17:03;22.30;;;13.95;;
42096;SDS011;27754;45.414;11.084;2023-03-01T10:19:51;26.65;;;13.85;;
42096;SDS011;27754;45.414;11.084;2023-03-01T10:22:20;27.08;;;15.35;;
42096;SDS011;27754;45.414;11.084;2023-03-01T10:24:56;25.10;;;14.90;;
42096;SDS011;27754;45.414;11.084;2023-03-01T10:27:25;25.25;;;15.68;;
42096;SDS011;27754;45.414;11.084;2023-03-01T10:32:46;28.80;;;17.38;;
42096;SDS011;27754;45.414;11.084;2023-03-01T10:35:16;37.15;;;18.92;;
42096;SDS011;27754;45.414;11.084;2023-03-01T10:40:33;30.10;;;19.10;;
42096;SDS011;27754;45.414;11.084;2023-03-01T10:43:16;25.83;;;16.88;;
42096;SDS011;27754;45.414;11.084;2023-03-01T10:45:43;25.48;;;16.08;;
42096;SDS011;27754;45.414;11.084;2023-03-01T10:50:46;27.10;;;15.13;;
42096;SDS011;27754;45.414;11.084;2023-03-01T10:53:25;29.52;;;16.15;;
42096;SDS011;27754;45.414;11.084;2023-03-01T10:56:00;27.02;;;15.98;;
42096;SDS011;27754;45.414;11.084;2023-03-01T10:58:33;29.73;;;16.55;;
42096;SDS011;27754;45.414;11.084;2023-03-01T11:01:05;26.00;;;15.98;;
42096;SDS011;27754;45.414;11.084;2023-03-01T11:03:41;23.23;;;15.02;;
42096;SDS011;27754;45.414;11.084;2023-03-01T11:11:16;23.02;;;12.73;;
42096;SDS011;27754;45.414;11.084;2023-03-01T11:14:13;18.00;;;11.38;;
42096;SDS011;27754;45.414;11.084;2023-03-01T11:16:59;22.48;;;13.13;;
42096;SDS011;27754;45.414;11.084;2023-03-01T11:19:26;25.90;;;13.90;;
42096;SDS011;27754;45.414;11.084;2023-03-01T11:21:59;23.88;;;13.40;;
42096;SDS011;27754;45.414;11.084;2023-03-01T11:24:34;21.45;;;11.90;;
42096;SDS011;27754;45.414;11.084;2023-03-01T11:27:04;15.45;;;10.63;;
42096;SDS011;27754;45.414;11.084;2023-03-01T11:29:36;15.50;;;9.68;;
42096;SDS011;27754;45.414;11.084;2023-03-01T11:32:14;18.85;;;10.23;;
42096;SDS011;27754;45.414;11.084;2023-03-01T11:34:43;22.25;;;10.93;;
42096;SDS011;27754;45.414;11.084;2023-03-01T11:37:28;18.75;;;10.40;;
42096;SDS011;27754;45.414;11.084;2023-03-01T11:42:58;13.52;;;9.48;;
42096;SDS011;27754;45.414;11.084;2023-03-01T11:48:33;19.73;;;11.45;;
42096;SDS011;27754;45.414;11.084;2023-03-01T11:51:33;20.88;;;12.15;;
42096;SDS011;27754;45.414;11.084;2023-03-01T12:09:26;21.27;;;11.75;;
42096;SDS011;27754;45.414;11.084;2023-03-01T12:17:41;18.67;;;8.77;;
42096;SDS011;27754;45.414;11.084;2023-03-01T12:20:46;15.57;;;9.57;;
42096;SDS011;27754;45.414;11.084;2023-03-01T12:26:09;18.15;;;8.32;;
42096;SDS011;27754;45.414;11.084;2023-03-01T12:29:30;10.80;;;6.10;;
42096;SDS011;27754;45.414;11.084;2023-03-01T12:34:49;15.05;;;5.60;;
42096;SDS011;27754;45.414;11.084;2023-03-01T12:49:17;12.85;;;5.35;;
42096;SDS011;27754;45.414;11.084;2023-03-01T12:51:56;9.95;;;5.03;;
42096;SDS011;27754;45.414;11.084;2023-03-01T12:54:35;10.38;;;5.15;;
42096;SDS011;27754;45.414;11.084;2023-03-01T12:57:09;13.50;;;4.60;;
42096;SDS011;27754;45.414;11.084;2023-03-01T12:59:43;10.68;;;5.25;;
42096;SDS011;27754;45.414;11.084;2023-03-01T13:02:22;12.65;;;5.80;;
42096;SDS011;27754;45.414;11.084;2023-03-01T13:05:06;22.02;;;5.38;;
42096;SDS011;27754;45.414;11.084;2023-03-01T13:10:42;17.88;;;5.60;;
42096;SDS011;27754;45.414;11.084;2023-03-01T13:15:51;16.70;;;6.07;;
42096;SDS011;27754;45.414;11.084;2023-03-01T13:23:26;12.07;;;5.00;;
42096;SDS011;27754;45.414;11.084;2023-03-01T13:26:00;15.27;;;4.50;;
42096;SDS011;27754;45.414;11.084;2023-03-01T13:28:36;14.45;;;5.72;;
42096;SDS011;27754;45.414;11.084;2023-03-01T13:33:58;17.10;;;5.97;;
42096;SDS011;27754;45.414;11.084;2023-03-01T13:38:58;12.25;;;5.70;;
42096;SDS011;27754;45.414;11.084;2023-03-01T13:44:27;15.57;;;5.50;;
42096;SDS011;27754;45.414;11.084;2023-03-01T13:47:03;13.43;;;5.40;;
42096;SDS011;27754;45.414;11.084;2023-03-01T13:49:41;14.70;;;5.20;;
42096;SDS011;27754;45.414;11.084;2023-03-01T13:52:35;14.25;;;5.25;;
42096;SDS011;27754;45.414;11.084;2023-03-01T13:57:45;16.40;;;6.50;;
42096;SDS011;27754;45.414;11.084;2023-03-01T14:00:26;22.50;;;7.13;;
42096;SDS011;27754;45.414;11.084;2023-03-01T14:03:10;21.15;;;6.30;;
42096;SDS011;27754;45.414;11.084;2023-03-01T14:05:56;12.98;;;6.20;;
42096;SDS011;27754;45.414;11.084;2023-03-01T14:08:47;17.48;;;5.40;;
42096;SDS011;27754;45.414;11.084;2023-03-01T14:19:45;12.20;;;4.72;;
42096;SDS011;27754;45.414;11.084;2023-03-01T14:22:24;15.98;;;5.82;;
42096;SDS011;27754;45.414;11.084;2023-03-01T14:24:57;11.10;;;5.82;;
42096;SDS011;27754;45.414;11.084;2023-03-01T14:27:37;9.13;;;4.47;;
42096;SDS011;27754;45.414;11.084;2023-03-01T14:30:12;8.20;;;4.47;;
42096;SDS011;27754;45.414;11.084;2023-03-01T14:33:17;10.40;;;5.07;;
42096;SDS011;27754;45.414;11.084;2023-03-01T14:35:55;12.60;;;4.30;;
42096;SDS011;27754;45.414;11.084;2023-03-01T14:38:32;9.65;;;5.00;;
42096;SDS011;27754;45.414;11.084;2023-03-01T14:41:20;13.20;;;4.75;;
42096;SDS011;27754;45.414;11.084;2023-03-01T14:43:59;19.02;;;5.40;;
42096;SDS011;27754;45.414;11.084;2023-03-01T14:46:33;13.30;;;4.85;;
42096;SDS011;27754;45.414;11.084;2023-03-01T14:51:55;23.92;;;6.50;;
42096;SDS011;27754;45.414;11.084;2023-03-01T14:54:27;15.77;;;4.82;;
42096;SDS011;27754;45.414;11.084;2023-03-01T14:57:04;12.43;;;5.60;;
42096;SDS011;27754;45.414;11.084;2023-03-01T14:59:32;14.00;;;6.00;;
42096;SDS011;27754;45.414;11.084;2023-03-01T15:01:59;11.30;;;5.90;;
42096;SDS011;27754;45.414;11.084;2023-03-01T15:04:27;17.67;;;5.60;;
42096;SDS011;27754;45.414;11.084;2023-03-01T15:06:56;11.13;;;5.47;;
42096;SDS011;27754;45.414;11.084;2023-03-01T15:09:32;13.50;;;5.57;;
42096;SDS011;27754;45.414;11.084;2023-03-01T15:12:23;12.30;;;5.00;;
42096;SDS011;27754;45.414;11.084;2023-03-01T15:14:55;13.57;;;6.50;;
42096;SDS011;27754;45.414;11.084;2023-03-01T15:17:30;11.75;;;7.00;;
42096;SDS011;27754;45.414;11.084;2023-03-01T15:20:04;18.80;;;7.82;;
42096;SDS011;27754;45.414;11.084;2023-03-01T15:22:47;15.73;;;7.47;;
42096;SDS011;27754;45.414;11.084;2023-03-01T15:25:18;14.25;;;7.35;;
42096;SDS011;27754;45.414;11.084;2023-03-01T15:27:48;15.85;;;8.00;;
42096;SDS011;27754;45.414;11.084;2023-03-01T15:30:21;14.57;;;7.85;;
42096;SDS011;27754;45.414;11.084;2023-03-01T15:33:17;17.95;;;7.95;;
42096;SDS011;27754;45.414;11.084;2023-03-01T15:35:56;14.73;;;7.72;;
42096;SDS011;27754;45.414;11.084;2023-03-01T15:38:25;13.38;;;8.30;;
42096;SDS011;27754;45.414;11.084;2023-03-01T15:40:54;14.20;;;8.05;;
42096;SDS011;27754;45.414;11.084;2023-03-01T15:46:15;15.45;;;9.30;;
42096;SDS011;27754;45.414;11.084;2023-03-01T15:48:44;14.00;;;8.57;;
42096;SDS011;27754;45.414;11.084;2023-03-01T15:51:20;15.02;;;8.30;;
42096;SDS011;27754;45.414;11.084;2023-03-01T15:53:54;17.45;;;8.10;;
42096;SDS011;27754;45.414;11.084;2023-03-01T15:56:21;15.50;;;7.88;;
42096;SDS011;27754;45.414;11.084;2023-03-01T15:58:48;15.90;;;7.90;;
42096;SDS011;27754;45.414;11.084;2023-03-01T16:01:16;18.30;;;8.38;;
42096;SDS011;27754;45.414;11.084;2023-03-01T16:03:44;16.08;;;7.53;;
42096;SDS011;27754;45.414;11.084;2023-03-01T16:06:12;14.23;;;7.35;;
42096;SDS011;27754;45.414;11.084;2023-03-01T16:08:39;12.38;;;7.18;;
42096;SDS011;27754;45.414;11.084;2023-03-01T16:11:13;12.35;;;7.25;;
42096;SDS011;27754;45.414;11.084;2023-03-01T16:13:42;13.05;;;8.13;;
42096;SDS011;27754;45.414;11.084;2023-03-01T16:16:10;11.95;;;7.30;;
42096;SDS011;27754;45.414;11.084;2023-03-01T16:18:41;11.40;;;7.28;;
42096;SDS011;27754;45.414;11.084;2023-03-01T16:21:13;15.05;;;8.57;;
42096;SDS011;27754;45.414;11.084;2023-03-01T16:23:42;13.70;;;7.97;;
42096;SDS011;27754;45.414;11.084;2023-03-01T16:26:10;11.98;;;8.10;;
42096;SDS011;27754;45.414;11.084;2023-03-01T16:28:37;14.65;;;7.30;;
42096;SDS011;27754;45.414;11.084;2023-03-01T16:31:04;11.88;;;8.30;;
42096;SDS011;27754;45.414;11.084;2023-03-01T16:33:32;14.27;;;7.38;;
42096;SDS011;27754;45.414;11.084;2023-03-01T16:36:01;12.93;;;7.75;;
42096;SDS011;27754;45.414;11.084;2023-03-01T16:38:33;13.93;;;7.95;;